sensor_id;sensor_type;location;lat;lon;timestamp;P1;durP1;ratioP1;P2;durP2;ratioP2
1010;SDS011;494;48.744;10.106;2022-08-19T00:02:02;32.43;;;23.37;;
1010;SDS011;494;48.744;10.106;2022-08-19T00:04:32;37.10;;;23.20;;
1010;SDS011;494;48.744;10.106;2022-08-19T00:07:03;34.93;;;25.77;;
1010;SDS011;494;48.744;10.106;2022-08-19T00:09:33;33.20;;;27.10;;
1010;SDS011;494;48.744;10.106;2022-08-19T00:12:04;35.30;;;25.50;;
1010;SDS011;494;48.744;10.106;2022-08-19T00:14:34;36.00;;;25.00;;
1010;SDS011;494;48.744;10.106;2022-08-19T00:17:03;36.53;;;30.10;;
1010;SDS011;494;48.744;10.106;2022-08-19T00:19:33;36.67;;;30.20;;
1010;SDS011;494;48.744;10.106;2022-08-19T00:22:04;37.97;;;29.57;;
1010;SDS011;494;48.744;10.106;2022-08-19T00:24:35;39.57;;;31.77;;
1010;SDS011;494;48.744;10.106;2022-08-19T00:27:05;35.63;;;29.90;;
1010;SDS011;494;48.744;10.106;2022-08-19T00:29:52;41.10;;;30.43;;
1010;SDS011;494;48.744;10.106;2022-08-19T00:32:20;40.40;;;33.10;;
1010;SDS011;494;48.744;10.106;2022-08-19T00:34:49;43.37;;;33.07;;
1010;SDS011;494;48.744;10.106;2022-08-19T00:37:19;41.60;;;31.37;;
1010;SDS011;494;48.744;10.106;2022-08-19T00:39:50;42.90;;;33.33;;
1010;SDS011;494;48.744;10.106;2022-08-19T00:42:20;40.07;;;32.73;;
1010;SDS011;494;48.744;10.106;2022-08-19T00:44:49;42.37;;;34.20;;
1010;SDS011;494;48.744;10.106;2022-08-19T00:47:18;40.47;;;32.40;;
1010;SDS011;494;48.744;10.106;2022-08-19T00:49:47;43.30;;;32.47;;
1010;SDS011;494;48.744;10.106;2022-08-19T00:52:23;42.57;;;33.90;;
1010;SDS011;494;48.744;10.106;2022-08-19T00:54:57;44.43;;;34.13;;
1010;SDS011;494;48.744;10.106;2022-08-19T00:57:30;43.77;;;35.13;;
1010;SDS011;494;48.744;10.106;2022-08-19T01:00:06;41.20;;;33.00;;
1010;SDS011;494;48.744;10.106;2022-08-19T01:02:40;42.03;;;34.33;;
1010;SDS011;494;48.744;10.106;2022-08-19T01:05:11;43.73;;;35.33;;
1010;SDS011;494;48.744;10.106;2022-08-19T01:07:47;42.47;;;32.90;;
1010;SDS011;494;48.744;10.106;2022-08-19T01:10:17;42.53;;;32.00;;
1010;SDS011;494;48.744;10.106;2022-08-19T01:12:52;41.87;;;29.37;;
1010;SDS011;494;48.744;10.106;2022-08-19T01:15:25;39.20;;;28.63;;
1010;SDS011;494;48.744;10.106;2022-08-19T01:18:01;42.43;;;29.97;;
1010;SDS011;494;48.744;10.106;2022-08-19T01:20:35;42.60;;;29.70;;
1010;SDS011;494;48.744;10.106;2022-08-19T01:23:05;42.27;;;30.20;;
1010;SDS011;494;48.744;10.106;2022-08-19T01:25:35;45.03;;;31.47;;
1010;SDS011;494;48.744;10.106;2022-08-19T01:28:14;42.40;;;29.70;;
1010;SDS011;494;48.744;10.106;2022-08-19T01:30:59;43.50;;;31.43;;
1010;SDS011;494;48.744;10.106;2022-08-19T01:33:33;46.70;;;31.50;;
1010;SDS011;494;48.744;10.106;2022-08-19T01:36:06;48.30;;;32.20;;
1010;SDS011;494;48.744;10.106;2022-08-19T01:38:41;46.60;;;32.83;;
1010;SDS011;494;48.744;10.106;2022-08-19T01:41:12;42.50;;;30.60;;
1010;SDS011;494;48.744;10.106;2022-08-19T01:43:41;47.10;;;32.00;;
1010;SDS011;494;48.744;10.106;2022-08-19T01:46:30;46.37;;;31.30;;
1010;SDS011;494;48.744;10.106;2022-08-19T01:49:00;44.20;;;31.80;;
1010;SDS011;494;48.744;10.106;2022-08-19T01:51:30;45.30;;;32.33;;
1010;SDS011;494;48.744;10.106;2022-08-19T01:54:07;46.00;;;30.63;;
1010;SDS011;494;48.744;10.106;2022-08-19T01:56:36;43.80;;;31.33;;
1010;SDS011;494;48.744;10.106;2022-08-19T01:59:06;47.80;;;32.87;;
1010;SDS011;494;48.744;10.106;2022-08-19T02:01:39;46.07;;;32.87;;
1010;SDS011;494;48.744;10.106;2022-08-19T02:04:08;48.13;;;33.00;;
1010;SDS011;494;48.744;10.106;2022-08-19T02:06:37;47.73;;;32.47;;
1010;SDS011;494;48.744;10.106;2022-08-19T02:09:08;44.67;;;31.33;;
1010;SDS011;494;48.744;10.106;2022-08-19T02:11:37;44.47;;;32.07;;
1010;SDS011;494;48.744;10.106;2022-08-19T02:14:07;49.43;;;33.57;;
1010;SDS011;494;48.744;10.106;2022-08-19T02:16:36;46.97;;;33.07;;
1010;SDS011;494;48.744;10.106;2022-08-19T02:19:06;44.37;;;31.27;;
1010;SDS011;494;48.744;10.106;2022-08-19T02:21:35;46.33;;;32.43;;
1010;SDS011;494;48.744;10.106;2022-08-19T02:24:04;43.77;;;32.20;;
1010;SDS011;494;48.744;10.106;2022-08-19T02:26:35;47.10;;;31.97;;
1010;SDS011;494;48.744;10.106;2022-08-19T02:29:03;48.07;;;33.23;;
1010;SDS011;494;48.744;10.106;2022-08-19T02:31:31;47.07;;;33.43;;
1010;SDS011;494;48.744;10.106;2022-08-19T02:34:00;45.53;;;32.30;;
1010;SDS011;494;48.744;10.106;2022-08-19T02:36:29;48.33;;;33.67;;
1010;SDS011;494;48.744;10.106;2022-08-19T02:38:58;45.70;;;32.50;;
1010;SDS011;494;48.744;10.106;2022-08-19T02:41:26;47.83;;;33.20;;
1010;SDS011;494;48.744;10.106;2022-08-19T02:44:00;46.07;;;33.10;;
1010;SDS011;494;48.744;10.106;2022-08-19T02:46:51;47.60;;;33.53;;
1010;SDS011;494;48.744;10.106;2022-08-19T02:49:19;46.17;;;34.00;;
1010;SDS011;494;48.744;10.106;2022-08-19T02:51:48;47.63;;;32.87;;
1010;SDS011;494;48.744;10.106;2022-08-19T02:54:16;45.53;;;31.73;;
1010;SDS011;494;48.744;10.106;2022-08-19T02:56:45;43.87;;;31.43;;
1010;SDS011;494;48.744;10.106;2022-08-19T02:59:15;44.83;;;31.97;;
1010;SDS011;494;48.744;10.106;2022-08-19T03:01:48;46.70;;;32.77;;
1010;SDS011;494;48.744;10.106;2022-08-19T03:04:17;46.17;;;32.97;;
1010;SDS011;494;48.744;10.106;2022-08-19T03:06:46;46.47;;;32.27;;
1010;SDS011;494;48.744;10.106;2022-08-19T03:09:15;47.00;;;33.27;;
1010;SDS011;494;48.744;10.106;2022-08-19T03:11:45;52.23;;;35.30;;
1010;SDS011;494;48.744;10.106;2022-08-19T03:14:19;52.30;;;35.90;;
1010;SDS011;494;48.744;10.106;2022-08-19T03:16:49;49.60;;;33.83;;
1010;SDS011;494;48.744;10.106;2022-08-19T03:19:19;53.30;;;36.03;;
1010;SDS011;494;48.744;10.106;2022-08-19T03:21:48;54.00;;;37.47;;
1010;SDS011;494;48.744;10.106;2022-08-19T03:24:18;55.60;;;37.30;;
1010;SDS011;494;48.744;10.106;2022-08-19T03:26:48;54.40;;;37.20;;
1010;SDS011;494;48.744;10.106;2022-08-19T03:29:25;58.07;;;38.27;;
1010;SDS011;494;48.744;10.106;2022-08-19T03:31:57;53.07;;;36.60;;
1010;SDS011;494;48.744;10.106;2022-08-19T03:34:30;53.60;;;36.60;;
1010;SDS011;494;48.744;10.106;2022-08-19T03:37:03;53.50;;;36.27;;
1010;SDS011;494;48.744;10.106;2022-08-19T03:39:34;53.30;;;37.50;;
1010;SDS011;494;48.744;10.106;2022-08-19T03:42:05;53.27;;;35.90;;
1010;SDS011;494;48.744;10.106;2022-08-19T03:44:55;55.67;;;38.30;;
1010;SDS011;494;48.744;10.106;2022-08-19T03:47:24;52.60;;;36.00;;
1010;SDS011;494;48.744;10.106;2022-08-19T03:49:53;52.47;;;37.30;;
1010;SDS011;494;48.744;10.106;2022-08-19T03:52:21;55.33;;;36.90;;
1010;SDS011;494;48.744;10.106;2022-08-19T03:54:50;54.37;;;37.80;;
1010;SDS011;494;48.744;10.106;2022-08-19T03:57:18;56.40;;;37.70;;
1010;SDS011;494;48.744;10.106;2022-08-19T03:59:58;54.43;;;37.30;;
1010;SDS011;494;48.744;10.106;2022-08-19T04:02:39;60.70;;;38.00;;
1010;SDS011;494;48.744;10.106;2022-08-19T04:05:26;55.13;;;35.50;;
1010;SDS011;494;48.744;10.106;2022-08-19T04:07:55;53.30;;;34.93;;
1010;SDS011;494;48.744;10.106;2022-08-19T04:10:25;55.70;;;38.50;;
1010;SDS011;494;48.744;10.106;2022-08-19T04:12:55;55.40;;;37.80;;
1010;SDS011;494;48.744;10.106;2022-08-19T04:15:25;55.30;;;37.17;;
1010;SDS011;494;48.744;10.106;2022-08-19T04:17:55;57.60;;;39.10;;
1010;SDS011;494;48.744;10.106;2022-08-19T04:20:24;57.73;;;38.70;;
1010;SDS011;494;48.744;10.106;2022-08-19T04:22:52;57.73;;;38.50;;
1010;SDS011;494;48.744;10.106;2022-08-19T04:25:20;55.90;;;37.10;;
1010;SDS011;494;48.744;10.106;2022-08-19T04:27:49;56.57;;;37.97;;
1010;SDS011;494;48.744;10.106;2022-08-19T04:30:18;61.33;;;36.77;;
1010;SDS011;494;48.744;10.106;2022-08-19T04:32:50;56.30;;;37.67;;
1010;SDS011;494;48.744;10.106;2022-08-19T04:35:19;59.97;;;39.00;;
1010;SDS011;494;48.744;10.106;2022-08-19T04:37:50;57.93;;;36.83;;
1010;SDS011;494;48.744;10.106;2022-08-19T04:40:18;57.23;;;36.17;;
1010;SDS011;494;48.744;10.106;2022-08-19T04:43:05;58.47;;;37.77;;
1010;SDS011;494;48.744;10.106;2022-08-19T04:45:35;59.77;;;38.17;;
1010;SDS011;494;48.744;10.106;2022-08-19T04:48:10;56.43;;;37.47;;
1010;SDS011;494;48.744;10.106;2022-08-19T04:50:53;57.50;;;36.87;;
1010;SDS011;494;48.744;10.106;2022-08-19T04:53:25;56.80;;;36.57;;
1010;SDS011;494;48.744;10.106;2022-08-19T04:56:04;54.23;;;36.00;;
1010;SDS011;494;48.744;10.106;2022-08-19T04:58:35;57.27;;;36.80;;
1010;SDS011;494;48.744;10.106;2022-08-19T05:01:07;60.63;;;39.60;;
1010;SDS011;494;48.744;10.106;2022-08-19T05:03:40;63.03;;;39.27;;
1010;SDS011;494;48.744;10.106;2022-08-19T05:06:10;58.70;;;37.33;;
1010;SDS011;494;48.744;10.106;2022-08-19T05:08:41;54.60;;;36.50;;
1010;SDS011;494;48.744;10.106;2022-08-19T05:11:12;60.43;;;37.10;;
1010;SDS011;494;48.744;10.106;2022-08-19T05:13:44;58.00;;;37.97;;
1010;SDS011;494;48.744;10.106;2022-08-19T05:16:13;53.20;;;35.83;;
1010;SDS011;494;48.744;10.106;2022-08-19T05:18:45;56.87;;;35.93;;
1010;SDS011;494;48.744;10.106;2022-08-19T05:21:33;55.73;;;37.07;;
1010;SDS011;494;48.744;10.106;2022-08-19T05:24:21;53.17;;;35.47;;
1010;SDS011;494;48.744;10.106;2022-08-19T05:26:51;58.10;;;36.67;;
1010;SDS011;494;48.744;10.106;2022-08-19T05:29:24;59.50;;;36.37;;
1010;SDS011;494;48.744;10.106;2022-08-19T05:32:02;56.30;;;36.17;;
1010;SDS011;494;48.744;10.106;2022-08-19T05:34:36;59.03;;;37.70;;
1010;SDS011;494;48.744;10.106;2022-08-19T05:37:05;58.47;;;39.53;;
1010;SDS011;494;48.744;10.106;2022-08-19T05:39:36;61.20;;;38.20;;
1010;SDS011;494;48.744;10.106;2022-08-19T05:42:06;60.53;;;38.00;;
1010;SDS011;494;48.744;10.106;2022-08-19T05:44:38;57.87;;;36.73;;
1010;SDS011;494;48.744;10.106;2022-08-19T05:47:11;67.77;;;39.20;;
1010;SDS011;494;48.744;10.106;2022-08-19T05:49:43;62.13;;;38.67;;
1010;SDS011;494;48.744;10.106;2022-08-19T05:52:13;58.10;;;36.37;;
1010;SDS011;494;48.744;10.106;2022-08-19T05:54:44;59.13;;;37.07;;
1010;SDS011;494;48.744;10.106;2022-08-19T05:57:16;55.47;;;36.80;;
1010;SDS011;494;48.744;10.106;2022-08-19T05:59:46;58.10;;;39.17;;
1010;SDS011;494;48.744;10.106;2022-08-19T06:02:23;53.43;;;35.40;;
1010;SDS011;494;48.744;10.106;2022-08-19T06:04:53;58.07;;;36.67;;
1010;SDS011;494;48.744;10.106;2022-08-19T06:07:21;57.93;;;36.93;;
1010;SDS011;494;48.744;10.106;2022-08-19T06:09:50;58.47;;;38.17;;
1010;SDS011;494;48.744;10.106;2022-08-19T06:12:26;56.20;;;35.67;;
1010;SDS011;494;48.744;10.106;2022-08-19T06:14:58;63.30;;;36.97;;
1010;SDS011;494;48.744;10.106;2022-08-19T06:17:28;56.00;;;36.50;;
1010;SDS011;494;48.744;10.106;2022-08-19T06:19:59;58.87;;;35.90;;
1010;SDS011;494;48.744;10.106;2022-08-19T06:22:28;63.70;;;38.60;;
1010;SDS011;494;48.744;10.106;2022-08-19T06:24:56;58.67;;;37.63;;
1010;SDS011;494;48.744;10.106;2022-08-19T06:27:24;56.80;;;37.27;;
1010;SDS011;494;48.744;10.106;2022-08-19T06:29:53;61.40;;;37.83;;
1010;SDS011;494;48.744;10.106;2022-08-19T06:32:21;59.13;;;36.30;;
1010;SDS011;494;48.744;10.106;2022-08-19T06:34:50;61.07;;;37.57;;
1010;SDS011;494;48.744;10.106;2022-08-19T06:37:19;55.07;;;34.70;;
1010;SDS011;494;48.744;10.106;2022-08-19T06:39:49;55.80;;;35.20;;
1010;SDS011;494;48.744;10.106;2022-08-19T06:42:18;57.03;;;36.17;;
1010;SDS011;494;48.744;10.106;2022-08-19T06:44:49;60.63;;;38.23;;
1010;SDS011;494;48.744;10.106;2022-08-19T06:47:19;57.77;;;39.07;;
1010;SDS011;494;48.744;10.106;2022-08-19T06:49:54;57.10;;;36.93;;
1010;SDS011;494;48.744;10.106;2022-08-19T06:52:30;57.83;;;36.53;;
1010;SDS011;494;48.744;10.106;2022-08-19T06:55:03;63.10;;;37.43;;
1010;SDS011;494;48.744;10.106;2022-08-19T06:57:33;57.40;;;36.10;;
1010;SDS011;494;48.744;10.106;2022-08-19T07:00:02;62.20;;;38.40;;
1010;SDS011;494;48.744;10.106;2022-08-19T07:02:38;55.90;;;37.37;;
1010;SDS011;494;48.744;10.106;2022-08-19T07:05:16;54.93;;;35.83;;
1010;SDS011;494;48.744;10.106;2022-08-19T07:07:47;57.37;;;38.40;;
1010;SDS011;494;48.744;10.106;2022-08-19T07:10:16;59.83;;;37.10;;
1010;SDS011;494;48.744;10.106;2022-08-19T07:12:45;61.63;;;35.80;;
1010;SDS011;494;48.744;10.106;2022-08-19T07:15:15;57.37;;;36.47;;
1010;SDS011;494;48.744;10.106;2022-08-19T07:17:44;59.20;;;37.03;;
1010;SDS011;494;48.744;10.106;2022-08-19T07:20:18;55.70;;;35.97;;
1010;SDS011;494;48.744;10.106;2022-08-19T07:22:55;55.20;;;37.47;;
1010;SDS011;494;48.744;10.106;2022-08-19T07:25:23;56.60;;;36.10;;
1010;SDS011;494;48.744;10.106;2022-08-19T07:27:58;58.80;;;38.23;;
1010;SDS011;494;48.744;10.106;2022-08-19T07:30:27;57.60;;;37.13;;
1010;SDS011;494;48.744;10.106;2022-08-19T07:32:57;56.00;;;37.33;;
1010;SDS011;494;48.744;10.106;2022-08-19T07:35:28;58.37;;;36.23;;
1010;SDS011;494;48.744;10.106;2022-08-19T07:38:00;57.40;;;36.37;;
1010;SDS011;494;48.744;10.106;2022-08-19T07:40:30;58.53;;;37.37;;
1010;SDS011;494;48.744;10.106;2022-08-19T07:42:58;59.50;;;39.27;;
1010;SDS011;494;48.744;10.106;2022-08-19T07:45:27;61.53;;;38.37;;
1010;SDS011;494;48.744;10.106;2022-08-19T07:47:55;57.80;;;37.33;;
1010;SDS011;494;48.744;10.106;2022-08-19T07:50:25;58.83;;;37.30;;
1010;SDS011;494;48.744;10.106;2022-08-19T07:52:53;59.87;;;36.67;;
1010;SDS011;494;48.744;10.106;2022-08-19T07:55:24;58.17;;;35.50;;
1010;SDS011;494;48.744;10.106;2022-08-19T07:58:09;56.63;;;36.90;;
1010;SDS011;494;48.744;10.106;2022-08-19T08:00:40;59.57;;;37.60;;
1010;SDS011;494;48.744;10.106;2022-08-19T08:03:10;55.90;;;37.90;;
1010;SDS011;494;48.744;10.106;2022-08-19T08:05:40;63.33;;;39.70;;
1010;SDS011;494;48.744;10.106;2022-08-19T08:08:27;64.60;;;38.60;;
1010;SDS011;494;48.744;10.106;2022-08-19T08:11:17;59.80;;;38.03;;
1010;SDS011;494;48.744;10.106;2022-08-19T08:13:49;56.40;;;37.63;;
1010;SDS011;494;48.744;10.106;2022-08-19T08:16:30;59.87;;;38.83;;
1010;SDS011;494;48.744;10.106;2022-08-19T08:19:12;62.10;;;38.40;;
1010;SDS011;494;48.744;10.106;2022-08-19T08:21:51;59.70;;;37.63;;
1010;SDS011;494;48.744;10.106;2022-08-19T08:24:21;59.87;;;38.57;;
1010;SDS011;494;48.744;10.106;2022-08-19T08:26:55;63.10;;;39.23;;
1010;SDS011;494;48.744;10.106;2022-08-19T08:29:25;66.03;;;39.20;;
1010;SDS011;494;48.744;10.106;2022-08-19T08:32:00;66.57;;;37.80;;
1010;SDS011;494;48.744;10.106;2022-08-19T08:34:40;59.43;;;38.00;;
1010;SDS011;494;48.744;10.106;2022-08-19T08:37:09;63.33;;;39.50;;
1010;SDS011;494;48.744;10.106;2022-08-19T08:39:41;66.97;;;40.50;;
1010;SDS011;494;48.744;10.106;2022-08-19T08:42:12;61.23;;;38.70;;
1010;SDS011;494;48.744;10.106;2022-08-19T08:44:51;66.80;;;42.13;;
1010;SDS011;494;48.744;10.106;2022-08-19T08:47:28;61.00;;;39.13;;
1010;SDS011;494;48.744;10.106;2022-08-19T08:50:07;58.83;;;38.07;;
1010;SDS011;494;48.744;10.106;2022-08-19T08:52:46;58.73;;;38.70;;
1010;SDS011;494;48.744;10.106;2022-08-19T08:55:20;59.17;;;39.70;;
1010;SDS011;494;48.744;10.106;2022-08-19T08:58:04;60.27;;;37.23;;
1010;SDS011;494;48.744;10.106;2022-08-19T09:00:42;66.00;;;39.87;;
1010;SDS011;494;48.744;10.106;2022-08-19T09:03:16;60.30;;;38.73;;
1010;SDS011;494;48.744;10.106;2022-08-19T09:05:56;62.33;;;39.20;;
1010;SDS011;494;48.744;10.106;2022-08-19T09:08:33;61.33;;;39.70;;
1010;SDS011;494;48.744;10.106;2022-08-19T09:11:24;62.77;;;40.87;;
1010;SDS011;494;48.744;10.106;2022-08-19T09:14:19;66.83;;;42.23;;
1010;SDS011;494;48.744;10.106;2022-08-19T09:17:18;63.60;;;40.60;;
1010;SDS011;494;48.744;10.106;2022-08-19T09:19:55;63.27;;;39.70;;
1010;SDS011;494;48.744;10.106;2022-08-19T09:22:27;64.73;;;41.13;;
1010;SDS011;494;48.744;10.106;2022-08-19T09:24:55;68.70;;;41.80;;
1010;SDS011;494;48.744;10.106;2022-08-19T09:27:24;64.87;;;41.57;;
1010;SDS011;494;48.744;10.106;2022-08-19T09:30:11;61.60;;;39.00;;
1010;SDS011;494;48.744;10.106;2022-08-19T09:32:44;69.27;;;43.03;;
1010;SDS011;494;48.744;10.106;2022-08-19T09:35:19;66.27;;;41.60;;
1010;SDS011;494;48.744;10.106;2022-08-19T09:37:49;69.57;;;40.80;;
1010;SDS011;494;48.744;10.106;2022-08-19T09:40:23;65.07;;;40.97;;
1010;SDS011;494;48.744;10.106;2022-08-19T09:42:55;65.80;;;43.77;;
1010;SDS011;494;48.744;10.106;2022-08-19T09:45:39;67.67;;;42.40;;
1010;SDS011;494;48.744;10.106;2022-08-19T09:48:08;68.60;;;42.37;;
1010;SDS011;494;48.744;10.106;2022-08-19T09:50:37;71.40;;;42.23;;
1010;SDS011;494;48.744;10.106;2022-08-19T09:53:17;68.70;;;42.40;;
1010;SDS011;494;48.744;10.106;2022-08-19T09:55:51;65.20;;;40.53;;
1010;SDS011;494;48.744;10.106;2022-08-19T09:58:19;67.57;;;42.07;;
1010;SDS011;494;48.744;10.106;2022-08-19T10:00:53;65.20;;;41.23;;
1010;SDS011;494;48.744;10.106;2022-08-19T10:03:22;68.53;;;43.77;;
1010;SDS011;494;48.744;10.106;2022-08-19T10:05:56;67.27;;;41.27;;
1010;SDS011;494;48.744;10.106;2022-08-19T10:08:29;70.40;;;45.00;;
1010;SDS011;494;48.744;10.106;2022-08-19T10:11:00;66.13;;;42.67;;
1010;SDS011;494;48.744;10.106;2022-08-19T10:13:52;70.13;;;44.13;;
1010;SDS011;494;48.744;10.106;2022-08-19T10:16:22;69.57;;;43.47;;
1010;SDS011;494;48.744;10.106;2022-08-19T10:18:56;65.77;;;42.47;;
1010;SDS011;494;48.744;10.106;2022-08-19T10:21:29;72.97;;;44.97;;
1010;SDS011;494;48.744;10.106;2022-08-19T10:24:03;74.57;;;45.37;;
1010;SDS011;494;48.744;10.106;2022-08-19T10:26:37;69.23;;;43.93;;
1010;SDS011;494;48.744;10.106;2022-08-19T10:29:12;69.50;;;44.03;;
1010;SDS011;494;48.744;10.106;2022-08-19T10:32:00;73.47;;;45.50;;
1010;SDS011;494;48.744;10.106;2022-08-19T10:34:35;63.70;;;41.73;;
1010;SDS011;494;48.744;10.106;2022-08-19T10:37:14;65.80;;;42.10;;
1010;SDS011;494;48.744;10.106;2022-08-19T10:39:56;67.83;;;42.70;;
1010;SDS011;494;48.744;10.106;2022-08-19T10:42:26;73.10;;;44.27;;
1010;SDS011;494;48.744;10.106;2022-08-19T10:44:54;67.37;;;42.57;;
1010;SDS011;494;48.744;10.106;2022-08-19T10:47:25;70.50;;;43.17;;
1010;SDS011;494;48.744;10.106;2022-08-19T10:49:57;76.47;;;44.80;;
1010;SDS011;494;48.744;10.106;2022-08-19T10:52:44;69.77;;;44.47;;
1010;SDS011;494;48.744;10.106;2022-08-19T10:55:17;66.70;;;42.93;;
1010;SDS011;494;48.744;10.106;2022-08-19T10:58:09;66.13;;;43.60;;
1010;SDS011;494;48.744;10.106;2022-08-19T11:00:39;63.63;;;41.20;;
1010;SDS011;494;48.744;10.106;2022-08-19T11:03:10;67.70;;;41.67;;
1010;SDS011;494;48.744;10.106;2022-08-19T11:05:39;63.70;;;41.27;;
1010;SDS011;494;48.744;10.106;2022-08-19T11:08:08;65.60;;;40.73;;
1010;SDS011;494;48.744;10.106;2022-08-19T11:10:48;63.43;;;40.03;;
1010;SDS011;494;48.744;10.106;2022-08-19T11:13:25;61.93;;;37.77;;
1010;SDS011;494;48.744;10.106;2022-08-19T11:15:58;67.50;;;39.63;;
1010;SDS011;494;48.744;10.106;2022-08-19T11:18:35;61.80;;;38.33;;
1010;SDS011;494;48.744;10.106;2022-08-19T11:21:06;62.97;;;40.63;;
1010;SDS011;494;48.744;10.106;2022-08-19T11:23:36;62.83;;;40.63;;
1010;SDS011;494;48.744;10.106;2022-08-19T11:26:05;67.43;;;41.00;;
1010;SDS011;494;48.744;10.106;2022-08-19T11:28:34;62.10;;;40.57;;
1010;SDS011;494;48.744;10.106;2022-08-19T11:31:03;65.37;;;40.70;;
1010;SDS011;494;48.744;10.106;2022-08-19T11:33:39;65.60;;;40.17;;
1010;SDS011;494;48.744;10.106;2022-08-19T11:36:13;59.30;;;38.57;;
1010;SDS011;494;48.744;10.106;2022-08-19T11:38:42;54.10;;;35.20;;
1010;SDS011;494;48.744;10.106;2022-08-19T11:41:11;47.67;;;32.60;;
1010;SDS011;494;48.744;10.106;2022-08-19T11:43:39;48.87;;;32.20;;
1010;SDS011;494;48.744;10.106;2022-08-19T11:46:10;46.87;;;31.50;;
1010;SDS011;494;48.744;10.106;2022-08-19T11:48:42;47.33;;;31.43;;
1010;SDS011;494;48.744;10.106;2022-08-19T11:51:12;41.10;;;25.80;;
1010;SDS011;494;48.744;10.106;2022-08-19T11:53:46;37.93;;;24.80;;
1010;SDS011;494;48.744;10.106;2022-08-19T11:56:16;34.47;;;22.23;;
1010;SDS011;494;48.744;10.106;2022-08-19T11:58:46;36.00;;;23.67;;
1010;SDS011;494;48.744;10.106;2022-08-19T12:01:16;29.00;;;18.93;;
1010;SDS011;494;48.744;10.106;2022-08-19T12:03:50;27.37;;;18.07;;
1010;SDS011;494;48.744;10.106;2022-08-19T12:06:23;24.60;;;16.47;;
1010;SDS011;494;48.744;10.106;2022-08-19T12:08:54;25.60;;;16.50;;
1010;SDS011;494;48.744;10.106;2022-08-19T12:11:24;92.03;;;81.80;;
1010;SDS011;494;48.744;10.106;2022-08-19T12:13:56;44.90;;;34.87;;
1010;SDS011;494;48.744;10.106;2022-08-19T12:16:26;26.33;;;16.53;;
1010;SDS011;494;48.744;10.106;2022-08-19T12:18:59;23.30;;;15.37;;
1010;SDS011;494;48.744;10.106;2022-08-19T12:21:31;26.43;;;16.73;;
1010;SDS011;494;48.744;10.106;2022-08-19T12:24:05;29.03;;;19.60;;
1010;SDS011;494;48.744;10.106;2022-08-19T12:26:35;31.43;;;21.63;;
1010;SDS011;494;48.744;10.106;2022-08-19T12:29:18;31.47;;;20.77;;
1010;SDS011;494;48.744;10.106;2022-08-19T12:31:49;32.90;;;22.23;;
1010;SDS011;494;48.744;10.106;2022-08-19T12:34:19;34.27;;;24.23;;
1010;SDS011;494;48.744;10.106;2022-08-19T12:36:48;35.17;;;24.50;;
1010;SDS011;494;48.744;10.106;2022-08-19T12:39:16;36.93;;;26.03;;
1010;SDS011;494;48.744;10.106;2022-08-19T12:41:45;38.27;;;25.83;;
1010;SDS011;494;48.744;10.106;2022-08-19T12:44:20;38.43;;;26.60;;
1010;SDS011;494;48.744;10.106;2022-08-19T12:46:55;65.80;;;50.93;;
1010;SDS011;494;48.744;10.106;2022-08-19T12:49:25;37.93;;;25.77;;
1010;SDS011;494;48.744;10.106;2022-08-19T12:52:15;35.87;;;25.80;;
1010;SDS011;494;48.744;10.106;2022-08-19T12:54:49;36.60;;;25.93;;
1010;SDS011;494;48.744;10.106;2022-08-19T12:57:20;36.17;;;26.23;;
1010;SDS011;494;48.744;10.106;2022-08-19T12:59:59;35.80;;;23.23;;
1010;SDS011;494;48.744;10.106;2022-08-19T13:02:32;34.00;;;21.80;;
1010;SDS011;494;48.744;10.106;2022-08-19T13:05:06;30.87;;;21.97;;
1010;SDS011;494;48.744;10.106;2022-08-19T13:07:39;28.50;;;19.80;;
1010;SDS011;494;48.744;10.106;2022-08-19T13:10:11;23.60;;;16.00;;
1010;SDS011;494;48.744;10.106;2022-08-19T13:12:42;23.47;;;15.23;;
1010;SDS011;494;48.744;10.106;2022-08-19T13:15:12;22.10;;;14.23;;
1010;SDS011;494;48.744;10.106;2022-08-19T13:17:49;23.53;;;14.00;;
1010;SDS011;494;48.744;10.106;2022-08-19T13:20:21;22.00;;;13.53;;
1010;SDS011;494;48.744;10.106;2022-08-19T13:22:51;21.97;;;13.73;;
1010;SDS011;494;48.744;10.106;2022-08-19T13:25:21;20.23;;;12.90;;
1010;SDS011;494;48.744;10.106;2022-08-19T13:27:49;18.90;;;11.73;;
1010;SDS011;494;48.744;10.106;2022-08-19T13:30:19;19.23;;;11.80;;
1010;SDS011;494;48.744;10.106;2022-08-19T13:33:06;20.03;;;12.60;;
1010;SDS011;494;48.744;10.106;2022-08-19T13:35:44;20.70;;;12.50;;
1010;SDS011;494;48.744;10.106;2022-08-19T13:38:22;18.20;;;10.20;;
1010;SDS011;494;48.744;10.106;2022-08-19T13:40:52;19.90;;;12.10;;
1010;SDS011;494;48.744;10.106;2022-08-19T13:43:23;22.53;;;13.47;;
1010;SDS011;494;48.744;10.106;2022-08-19T13:45:55;22.20;;;14.60;;
1010;SDS011;494;48.744;10.106;2022-08-19T13:48:24;22.87;;;13.23;;
1010;SDS011;494;48.744;10.106;2022-08-19T13:50:55;25.33;;;15.00;;
1010;SDS011;494;48.744;10.106;2022-08-19T13:53:23;27.33;;;15.90;;
1010;SDS011;494;48.744;10.106;2022-08-19T13:55:52;23.23;;;15.90;;
1010;SDS011;494;48.744;10.106;2022-08-19T13:58:21;29.47;;;17.40;;
1010;SDS011;494;48.744;10.106;2022-08-19T14:00:49;27.53;;;19.07;;
1010;SDS011;494;48.744;10.106;2022-08-19T14:03:18;29.37;;;19.30;;
1010;SDS011;494;48.744;10.106;2022-08-19T14:05:47;56.83;;;42.43;;
1010;SDS011;494;48.744;10.106;2022-08-19T14:08:17;39.97;;;30.43;;
1010;SDS011;494;48.744;10.106;2022-08-19T14:10:46;29.30;;;19.20;;
1010;SDS011;494;48.744;10.106;2022-08-19T14:13:16;30.30;;;20.40;;
1010;SDS011;494;48.744;10.106;2022-08-19T14:15:50;29.10;;;19.77;;
1010;SDS011;494;48.744;10.106;2022-08-19T14:18:19;31.93;;;21.87;;
1010;SDS011;494;48.744;10.106;2022-08-19T14:20:51;29.80;;;20.70;;
1010;SDS011;494;48.744;10.106;2022-08-19T14:23:21;29.70;;;20.77;;
1010;SDS011;494;48.744;10.106;2022-08-19T14:25:50;39.10;;;26.17;;
1010;SDS011;494;48.744;10.106;2022-08-19T14:28:18;36.33;;;23.13;;
1010;SDS011;494;48.744;10.106;2022-08-19T14:30:53;83.37;;;64.77;;
1010;SDS011;494;48.744;10.106;2022-08-19T14:33:22;34.07;;;22.10;;
1010;SDS011;494;48.744;10.106;2022-08-19T14:35:56;31.07;;;20.70;;
1010;SDS011;494;48.744;10.106;2022-08-19T14:38:26;31.50;;;21.57;;
1010;SDS011;494;48.744;10.106;2022-08-19T14:43:43;31.97;;;20.40;;
1010;SDS011;494;48.744;10.106;2022-08-19T14:46:15;28.43;;;20.13;;
1010;SDS011;494;48.744;10.106;2022-08-19T14:48:50;31.37;;;21.00;;
1010;SDS011;494;48.744;10.106;2022-08-19T14:51:21;29.13;;;19.67;;
1010;SDS011;494;48.744;10.106;2022-08-19T14:53:54;29.23;;;20.13;;
1010;SDS011;494;48.744;10.106;2022-08-19T14:56:24;34.50;;;19.83;;
1010;SDS011;494;48.744;10.106;2022-08-19T14:58:56;30.17;;;20.20;;
1010;SDS011;494;48.744;10.106;2022-08-19T15:01:27;30.00;;;21.13;;
1010;SDS011;494;48.744;10.106;2022-08-19T15:03:56;33.33;;;22.60;;
1010;SDS011;494;48.744;10.106;2022-08-19T15:06:24;33.23;;;23.37;;
1010;SDS011;494;48.744;10.106;2022-08-19T15:08:55;36.50;;;25.67;;
1010;SDS011;494;48.744;10.106;2022-08-19T15:11:29;69.00;;;54.23;;
1010;SDS011;494;48.744;10.106;2022-08-19T15:13:59;31.23;;;21.70;;
1010;SDS011;494;48.744;10.106;2022-08-19T15:16:28;31.33;;;21.50;;
1010;SDS011;494;48.744;10.106;2022-08-19T15:18:57;30.20;;;21.00;;
1010;SDS011;494;48.744;10.106;2022-08-19T15:21:27;31.73;;;20.80;;
1010;SDS011;494;48.744;10.106;2022-08-19T15:23:58;31.90;;;21.67;;